sensor_id;sensor_type;location;lat;lon;timestamp;temperature;humidity
11922;DHT22;6021;51.182;3.160;2023-09-19T00:02:06;14.90;1.00
11922;DHT22;6021;51.182;3.160;2023-09-19T00:04:36;14.80;1.00
11922;DHT22;6021;51.182;3.160;2023-09-19T00:07:06;14.80;1.00
11922;DHT22;6021;51.182;3.160;2023-09-19T00:09:36;14.80;1.00
11922;DHT22;6021;51.182;3.160;2023-09-19T00:12:06;14.80;1.00
11922;DHT22;6021;51.182;3.160;2023-09-19T00:14:36;14.80;1.00
11922;DHT22;6021;51.182;3.160;2023-09-19T00:17:04;14.90;1.00
11922;DHT22;6021;51.182;3.160;2023-09-19T00:19:35;14.90;1.00
11922;DHT22;6021;51.182;3.160;2023-09-19T00:22:05;14.80;1.00
11922;DHT22;6021;51.182;3.160;2023-09-19T00:24:33;14.80;1.00
11922;DHT22;6021;51.182;3.160;2023-09-19T00:27:01;14.80;1.00
11922;DHT22;6021;51.182;3.160;2023-09-19T00:29:30;14.70;1.00
11922;DHT22;6021;51.182;3.160;2023-09-19T00:31:58;14.80;1.00
11922;DHT22;6021;51.182;3.160;2023-09-19T00:34:27;14.80;1.00
11922;DHT22;6021;51.182;3.160;2023-09-19T00:36:57;14.80;1.00
11922;DHT22;6021;51.182;3.160;2023-09-19T00:39:26;14.80;1.00
11922;DHT22;6021;51.182;3.160;2023-09-19T00:41:55;14.80;1.00
11922;DHT22;6021;51.182;3.160;2023-09-19T00:44:23;14.90;1.00
11922;DHT22;6021;51.182;3.160;2023-09-19T00:46:53;14.90;1.00
11922;DHT22;6021;51.182;3.160;2023-09-19T00:49:21;14.90;1.00
11922;DHT22;6021;51.182;3.160;2023-09-19T00:51:50;14.80;1.00
11922;DHT22;6021;51.182;3.160;2023-09-19T00:54:19;14.90;1.00
11922;DHT22;6021;51.182;3.160;2023-09-19T00:56:48;14.90;1.00
11922;DHT22;6021;51.182;3.160;2023-09-19T00:59:18;15.00;1.00
11922;DHT22;6021;51.182;3.160;2023-09-19T01:01:46;14.90;1.00
11922;DHT22;6021;51.182;3.160;2023-09-19T01:04:16;14.80;1.00
11922;DHT22;6021;51.182;3.160;2023-09-19T01:06:45;14.70;1.00
11922;DHT22;6021;51.182;3.160;2023-09-19T01:09:14;14.70;1.00
11922;DHT22;6021;51.182;3.160;2023-09-19T01:11:44;14.70;1.00
11922;DHT22;6021;51.182;3.160;2023-09-19T01:14:42;14.80;1.00
11922;DHT22;6021;51.182;3.160;2023-09-19T01:17:19;14.80;1.00
11922;DHT22;6021;51.182;3.160;2023-09-19T01:20:03;14.80;1.00
11922;DHT22;6021;51.182;3.160;2023-09-19T01:22:40;14.80;1.00
11922;DHT22;6021;51.182;3.160;2023-09-19T01:25:41;14.80;1.00
11922;DHT22;6021;51.182;3.160;2023-09-19T01:31:10;14.60;1.00
11922;DHT22;6021;51.182;3.160;2023-09-19T01:34:00;14.70;1.00
11922;DHT22;6021;51.182;3.160;2023-09-19T01:36:36;14.70;1.00
11922;DHT22;6021;51.182;3.160;2023-09-19T01:39:07;14.70;1.00
11922;DHT22;6021;51.182;3.160;2023-09-19T01:44:51;14.70;1.00
11922;DHT22;6021;51.182;3.160;2023-09-19T01:47:46;14.60;1.00
11922;DHT22;6021;51.182;3.160;2023-09-19T01:50:11;14.60;1.00
11922;DHT22;6021;51.182;3.160;2023-09-19T01:52:42;14.60;1.00
11922;DHT22;6021;51.182;3.160;2023-09-19T01:55:10;14.70;1.00
11922;DHT22;6021;51.182;3.160;2023-09-19T01:57:48;14.60;1.00
11922;DHT22;6021;51.182;3.160;2023-09-19T02:00:18;14.70;1.00
11922;DHT22;6021;51.182;3.160;2023-09-19T02:02:49;14.60;1.00
11922;DHT22;6021;51.182;3.160;2023-09-19T02:05:23;14.80;1.00
11922;DHT22;6021;51.182;3.160;2023-09-19T02:07:57;14.70;1.00
11922;DHT22;6021;51.182;3.160;2023-09-19T02:10:26;14.60;1.00
11922;DHT22;6021;51.182;3.160;2023-09-19T02:12:54;14.60;1.00
11922;DHT22;6021;51.182;3.160;2023-09-19T02:15:23;14.70;1.00
11922;DHT22;6021;51.182;3.160;2023-09-19T02:17:52;14.70;1.00
11922;DHT22;6021;51.182;3.160;2023-09-19T02:20:20;14.80;1.00
11922;DHT22;6021;51.182;3.160;2023-09-19T02:22:48;14.60;1.00
11922;DHT22;6021;51.182;3.160;2023-09-19T02:25:17;14.60;1.00
11922;DHT22;6021;51.182;3.160;2023-09-19T02:27:46;14.60;1.00
11922;DHT22;6021;51.182;3.160;2023-09-19T02:30:15;14.70;1.00
11922;DHT22;6021;51.182;3.160;2023-09-19T02:32:45;14.60;1.00
11922;DHT22;6021;51.182;3.160;2023-09-19T02:35:13;14.70;1.00
11922;DHT22;6021;51.182;3.160;2023-09-19T02:37:42;14.80;1.00
11922;DHT22;6021;51.182;3.160;2023-09-19T02:40:12;14.80;1.00
11922;DHT22;6021;51.182;3.160;2023-09-19T02:42:53;14.70;1.00
11922;DHT22;6021;51.182;3.160;2023-09-19T02:45:17;14.80;1.00
11922;DHT22;6021;51.182;3.160;2023-09-19T02:47:49;14.80;1.00
11922;DHT22;6021;51.182;3.160;2023-09-19T02:50:17;14.60;1.00
11922;DHT22;6021;51.182;3.160;2023-09-19T02:52:46;14.90;1.00
11922;DHT22;6021;51.182;3.160;2023-09-19T02:55:17;15.10;1.00
11922;DHT22;6021;51.182;3.160;2023-09-19T02:57:51;14.80;1.00
11922;DHT22;6021;51.182;3.160;2023-09-19T03:00:22;14.70;1.00
11922;DHT22;6021;51.182;3.160;2023-09-19T03:02:53;14.70;2.70
11922;DHT22;6021;51.182;3.160;2023-09-19T03:05:21;14.70;9.60
11922;DHT22;6021;51.182;3.160;2023-09-19T03:07:50;14.70;14.40
11922;DHT22;6021;51.182;3.160;2023-09-19T03:10:20;14.70;22.70
11922;DHT22;6021;51.182;3.160;2023-09-19T03:12:49;14.70;34.00
11922;DHT22;6021;51.182;3.160;2023-09-19T03:15:17;14.80;36.50
11922;DHT22;6021;51.182;3.160;2023-09-19T03:17:47;14.70;61.60
11922;DHT22;6021;51.182;3.160;2023-09-19T03:20:16;14.70;64.40
11922;DHT22;6021;51.182;3.160;2023-09-19T03:22:46;14.80;67.30
11922;DHT22;6021;51.182;3.160;2023-09-19T03:25:15;14.70;58.20
11922;DHT22;6021;51.182;3.160;2023-09-19T03:27:44;14.90;77.20
11922;DHT22;6021;51.182;3.160;2023-09-19T03:30:12;14.80;80.70
11922;DHT22;6021;51.182;3.160;2023-09-19T03:32:45;14.90;99.90
11922;DHT22;6021;51.182;3.160;2023-09-19T03:35:14;14.90;98.60
11922;DHT22;6021;51.182;3.160;2023-09-19T03:37:43;14.90;99.00
11922;DHT22;6021;51.182;3.160;2023-09-19T03:40:12;14.80;99.90
11922;DHT22;6021;51.182;3.160;2023-09-19T03:42:41;14.80;99.90
11922;DHT22;6021;51.182;3.160;2023-09-19T03:45:10;14.80;99.90
11922;DHT22;6021;51.182;3.160;2023-09-19T03:47:42;14.80;99.90
11922;DHT22;6021;51.182;3.160;2023-09-19T03:50:11;14.70;99.90
11922;DHT22;6021;51.182;3.160;2023-09-19T03:52:39;14.70;99.90
11922;DHT22;6021;51.182;3.160;2023-09-19T03:55:08;14.70;99.90
11922;DHT22;6021;51.182;3.160;2023-09-19T03:57:37;14.70;99.90
11922;DHT22;6021;51.182;3.160;2023-09-19T04:00:06;14.80;99.90
11922;DHT22;6021;51.182;3.160;2023-09-19T04:02:39;14.90;99.90
11922;DHT22;6021;51.182;3.160;2023-09-19T04:05:08;14.90;99.90
11922;DHT22;6021;51.182;3.160;2023-09-19T04:07:37;15.00;99.90
11922;DHT22;6021;51.182;3.160;2023-09-19T04:10:06;14.90;99.90
11922;DHT22;6021;51.182;3.160;2023-09-19T04:12:36;14.80;99.90
11922;DHT22;6021;51.182;3.160;2023-09-19T04:15:06;14.90;99.90
11922;DHT22;6021;51.182;3.160;2023-09-19T04:17:34;14.80;99.90
11922;DHT22;6021;51.182;3.160;2023-09-19T04:20:03;14.90;99.90
11922;DHT22;6021;51.182;3.160;2023-09-19T04:22:33;14.80;99.90
11922;DHT22;6021;51.182;3.160;2023-09-19T04:25:01;14.90;99.90
11922;DHT22;6021;51.182;3.160;2023-09-19T04:27:30;14.80;99.90
11922;DHT22;6021;51.182;3.160;2023-09-19T04:29:58;14.80;99.90
11922;DHT22;6021;51.182;3.160;2023-09-19T04:32:28;14.80;99.90
11922;DHT22;6021;51.182;3.160;2023-09-19T04:34:56;14.60;99.90
11922;DHT22;6021;51.182;3.160;2023-09-19T04:37:26;14.70;99.90
11922;DHT22;6021;51.182;3.160;2023-09-19T04:39:56;14.70;99.90
11922;DHT22;6021;51.182;3.160;2023-09-19T04:42:24;14.80;99.90
11922;DHT22;6021;51.182;3.160;2023-09-19T04:44:52;14.70;99.90
11922;DHT22;6021;51.182;3.160;2023-09-19T04:47:21;14.70;99.90
11922;DHT22;6021;51.182;3.160;2023-09-19T04:49:50;14.60;99.90
11922;DHT22;6021;51.182;3.160;2023-09-19T04:52:18;14.60;99.90
11922;DHT22;6021;51.182;3.160;2023-09-19T04:54:47;14.50;99.90
11922;DHT22;6021;51.182;3.160;2023-09-19T04:57:15;14.40;99.90
11922;DHT22;6021;51.182;3.160;2023-09-19T04:59:44;14.30;99.90
11922;DHT22;6021;51.182;3.160;2023-09-19T05:02:12;14.20;99.90
11922;DHT22;6021;51.182;3.160;2023-09-19T05:04:40;14.10;99.90
11922;DHT22;6021;51.182;3.160;2023-09-19T05:07:09;14.10;99.90
11922;DHT22;6021;51.182;3.160;2023-09-19T05:09:37;14.10;99.90
11922;DHT22;6021;51.182;3.160;2023-09-19T05:12:06;14.10;99.90
11922;DHT22;6021;51.182;3.160;2023-09-19T05:14:34;14.10;99.90
11922;DHT22;6021;51.182;3.160;2023-09-19T05:17:03;14.10;99.90
11922;DHT22;6021;51.182;3.160;2023-09-19T05:19:31;14.20;99.90
11922;DHT22;6021;51.182;3.160;2023-09-19T05:22:00;14.20;99.90
11922;DHT22;6021;51.182;3.160;2023-09-19T05:24:28;14.20;99.90
11922;DHT22;6021;51.182;3.160;2023-09-19T05:26:57;14.10;99.90
11922;DHT22;6021;51.182;3.160;2023-09-19T05:29:25;14.10;99.90
11922;DHT22;6021;51.182;3.160;2023-09-19T05:31:53;14.20;99.90
11922;DHT22;6021;51.182;3.160;2023-09-19T05:34:22;14.10;99.90
11922;DHT22;6021;51.182;3.160;2023-09-19T05:36:50;14.20;99.90
11922;DHT22;6021;51.182;3.160;2023-09-19T05:39:19;14.00;99.90
11922;DHT22;6021;51.182;3.160;2023-09-19T05:41:47;14.00;99.90
11922;DHT22;6021;51.182;3.160;2023-09-19T05:44:16;14.10;99.90
11922;DHT22;6021;51.182;3.160;2023-09-19T05:46:44;14.20;99.90
11922;DHT22;6021;51.182;3.160;2023-09-19T05:49:14;14.10;99.90
11922;DHT22;6021;51.182;3.160;2023-09-19T05:51:43;14.10;99.90
11922;DHT22;6021;51.182;3.160;2023-09-19T05:54:11;14.00;99.90
11922;DHT22;6021;51.182;3.160;2023-09-19T05:56:39;14.10;99.90
11922;DHT22;6021;51.182;3.160;2023-09-19T05:59:09;14.20;99.90
11922;DHT22;6021;51.182;3.160;2023-09-19T06:01:37;14.20;99.90
11922;DHT22;6021;51.182;3.160;2023-09-19T06:04:06;14.20;99.90
11922;DHT22;6021;51.182;3.160;2023-09-19T06:06:34;14.30;99.90
11922;DHT22;6021;51.182;3.160;2023-09-19T06:09:04;14.30;99.90
11922;DHT22;6021;51.182;3.160;2023-09-19T06:11:33;14.30;99.90
11922;DHT22;6021;51.182;3.160;2023-09-19T06:14:02;14.30;99.90
11922;DHT22;6021;51.182;3.160;2023-09-19T06:16:31;14.20;99.90
11922;DHT22;6021;51.182;3.160;2023-09-19T06:19:01;14.30;99.90
11922;DHT22;6021;51.182;3.160;2023-09-19T06:21:30;14.40;99.90
11922;DHT22;6021;51.182;3.160;2023-09-19T06:23:59;14.40;99.90
11922;DHT22;6021;51.182;3.160;2023-09-19T06:26:28;14.40;99.90
11922;DHT22;6021;51.182;3.160;2023-09-19T06:28:58;14.70;99.90
11922;DHT22;6021;51.182;3.160;2023-09-19T06:31:27;14.60;99.90
11922;DHT22;6021;51.182;3.160;2023-09-19T06:33:55;14.50;99.90
11922;DHT22;6021;51.182;3.160;2023-09-19T06:36:23;14.60;99.90
11922;DHT22;6021;51.182;3.160;2023-09-19T06:38:52;14.70;99.90
11922;DHT22;6021;51.182;3.160;2023-09-19T06:41:20;14.70;99.90
11922;DHT22;6021;51.182;3.160;2023-09-19T06:43:50;14.70;99.90
11922;DHT22;6021;51.182;3.160;2023-09-19T06:46:20;14.80;99.90
11922;DHT22;6021;51.182;3.160;2023-09-19T06:48:49;14.60;99.90
11922;DHT22;6021;51.182;3.160;2023-09-19T06:51:19;14.80;99.90
11922;DHT22;6021;51.182;3.160;2023-09-19T06:53:47;14.90;99.90
11922;DHT22;6021;51.182;3.160;2023-09-19T06:56:16;14.80;99.90
11922;DHT22;6021;51.182;3.160;2023-09-19T06:58:44;14.80;99.90
11922;DHT22;6021;51.182;3.160;2023-09-19T07:01:12;14.90;99.90
11922;DHT22;6021;51.182;3.160;2023-09-19T07:03:42;14.90;99.90
11922;DHT22;6021;51.182;3.160;2023-09-19T07:06:12;14.90;99.90
11922;DHT22;6021;51.182;3.160;2023-09-19T07:08:40;14.90;99.90
11922;DHT22;6021;51.182;3.160;2023-09-19T07:11:09;15.00;99.90
11922;DHT22;6021;51.182;3.160;2023-09-19T07:13:39;14.90;99.90
11922;DHT22;6021;51.182;3.160;2023-09-19T07:16:07;15.00;99.90
11922;DHT22;6021;51.182;3.160;2023-09-19T07:18:37;15.00;99.90
11922;DHT22;6021;51.182;3.160;2023-09-19T07:21:06;15.10;99.90
11922;DHT22;6021;51.182;3.160;2023-09-19T07:23:34;15.10;99.90
11922;DHT22;6021;51.182;3.160;2023-09-19T07:26:02;15.20;99.90
11922;DHT22;6021;51.182;3.160;2023-09-19T07:28:32;15.20;99.90
11922;DHT22;6021;51.182;3.160;2023-09-19T07:31:03;15.20;99.90
11922;DHT22;6021;51.182;3.160;2023-09-19T07:33:32;15.20;99.90
11922;DHT22;6021;51.182;3.160;2023-09-19T07:36:00;15.20;99.90
11922;DHT22;6021;51.182;3.160;2023-09-19T07:38:29;15.20;99.90
11922;DHT22;6021;51.182;3.160;2023-09-19T07:41:03;15.30;99.90
11922;DHT22;6021;51.182;3.160;2023-09-19T07:43:32;15.30;99.90
11922;DHT22;6021;51.182;3.160;2023-09-19T07:46:07;15.40;99.90
11922;DHT22;6021;51.182;3.160;2023-09-19T07:48:38;15.40;99.90
11922;DHT22;6021;51.182;3.160;2023-09-19T07:51:08;15.40;99.90
11922;DHT22;6021;51.182;3.160;2023-09-19T07:53:38;15.50;99.90
11922;DHT22;6021;51.182;3.160;2023-09-19T07:56:07;15.50;99.90
11922;DHT22;6021;51.182;3.160;2023-09-19T07:58:38;15.60;99.90
11922;DHT22;6021;51.182;3.160;2023-09-19T08:01:07;15.40;99.90
11922;DHT22;6021;51.182;3.160;2023-09-19T08:03:36;15.60;99.90
11922;DHT22;6021;51.182;3.160;2023-09-19T08:06:07;15.70;99.90
11922;DHT22;6021;51.182;3.160;2023-09-19T08:08:36;15.70;99.90
11922;DHT22;6021;51.182;3.160;2023-09-19T08:11:08;15.70;99.90
11922;DHT22;6021;51.182;3.160;2023-09-19T08:13:38;15.80;99.90
11922;DHT22;6021;51.182;3.160;2023-09-19T08:16:14;15.80;99.90
11922;DHT22;6021;51.182;3.160;2023-09-19T08:18:38;15.80;99.90
11922;DHT22;6021;51.182;3.160;2023-09-19T08:21:12;15.80;99.90
11922;DHT22;6021;51.182;3.160;2023-09-19T08:23:41;15.80;99.90
11922;DHT22;6021;51.182;3.160;2023-09-19T08:26:10;15.80;99.90
11922;DHT22;6021;51.182;3.160;2023-09-19T08:28:39;15.80;99.90
11922;DHT22;6021;51.182;3.160;2023-09-19T08:31:09;15.80;99.90
11922;DHT22;6021;51.182;3.160;2023-09-19T08:33:37;15.90;99.90
11922;DHT22;6021;51.182;3.160;2023-09-19T08:36:07;15.90;99.90
11922;DHT22;6021;51.182;3.160;2023-09-19T08:38:36;16.00;99.90
11922;DHT22;6021;51.182;3.160;2023-09-19T08:41:08;16.10;99.90
11922;DHT22;6021;51.182;3.160;2023-09-19T08:43:36;16.10;99.90
11922;DHT22;6021;51.182;3.160;2023-09-19T08:46:14;16.10;99.90
11922;DHT22;6021;51.182;3.160;2023-09-19T08:48:48;16.10;99.90
11922;DHT22;6021;51.182;3.160;2023-09-19T08:51:30;16.10;99.90
11922;DHT22;6021;51.182;3.160;2023-09-19T08:54:06;16.20;99.90
11922;DHT22;6021;51.182;3.160;2023-09-19T08:56:34;16.20;99.90
11922;DHT22;6021;51.182;3.160;2023-09-19T08:59:06;16.20;99.90
11922;DHT22;6021;51.182;3.160;2023-09-19T09:01:39;16.30;99.90
11922;DHT22;6021;51.182;3.160;2023-09-19T09:04:09;16.20;99.90
11922;DHT22;6021;51.182;3.160;2023-09-19T09:06:39;16.20;99.90
11922;DHT22;6021;51.182;3.160;2023-09-19T09:09:10;16.20;99.90
11922;DHT22;6021;51.182;3.160;2023-09-19T09:11:39;16.30;99.90
11922;DHT22;6021;51.182;3.160;2023-09-19T09:14:08;16.40;99.90
11922;DHT22;6021;51.182;3.160;2023-09-19T09:16:36;16.50;99.90
11922;DHT22;6021;51.182;3.160;2023-09-19T09:19:05;16.60;99.90
11922;DHT22;6021;51.182;3.160;2023-09-19T09:21:33;16.70;95.10
11922;DHT22;6021;51.182;3.160;2023-09-19T09:24:26;16.80;97.50
11922;DHT22;6021;51.182;3.160;2023-09-19T09:26:56;16.90;76.70
11922;DHT22;6021;51.182;3.160;2023-09-19T09:29:47;16.90;67.10
11922;DHT22;6021;51.182;3.160;2023-09-19T09:32:31;17.10;40.70
11922;DHT22;6021;51.182;3.160;2023-09-19T09:35:01;17.10;35.20
11922;DHT22;6021;51.182;3.160;2023-09-19T09:37:29;17.20;21.20
11922;DHT22;6021;51.182;3.160;2023-09-19T09:40:00;17.30;19.00
11922;DHT22;6021;51.182;3.160;2023-09-19T09:42:36;17.30;17.10
11922;DHT22;6021;51.182;3.160;2023-09-19T09:45:23;17.40;18.70
11922;DHT22;6021;51.182;3.160;2023-09-19T09:48:04;17.40;8.30
11922;DHT22;6021;51.182;3.160;2023-09-19T09:50:35;17.40;3.00
11922;DHT22;6021;51.182;3.160;2023-09-19T09:53:23;17.40;1.00
11922;DHT22;6021;51.182;3.160;2023-09-19T09:56:08;17.40;1.00
11922;DHT22;6021;51.182;3.160;2023-09-19T09:58:49;17.50;1.00
11922;DHT22;6021;51.182;3.160;2023-09-19T10:01:20;17.50;4.80
11922;DHT22;6021;51.182;3.160;2023-09-19T16:54:20;16.80;99.90
11922;DHT22;6021;51.182;3.160;2023-09-19T16:56:48;16.90;99.90
11922;DHT22;6021;51.182;3.160;2023-09-19T17:00:15;16.90;99.90
11922;DHT22;6021;51.182;3.160;2023-09-19T17:02:46;16.90;99.90
11922;DHT22;6021;51.182;3.160;2023-09-19T17:05:15;17.00;99.90
11922;DHT22;6021;51.182;3.160;2023-09-19T17:07:45;17.00;99.90
11922;DHT22;6021;51.182;3.160;2023-09-19T17:10:13;17.00;99.90
11922;DHT22;6021;51.182;3.160;2023-09-19T17:12:41;16.90;99.90
11922;DHT22;6021;51.182;3.160;2023-09-19T17:15:10;17.00;99.90
11922;DHT22;6021;51.182;3.160;2023-09-19T17:17:38;17.00;99.90
11922;DHT22;6021;51.182;3.160;2023-09-19T17:20:08;17.00;99.90
11922;DHT22;6021;51.182;3.160;2023-09-19T17:22:36;17.00;99.90
11922;DHT22;6021;51.182;3.160;2023-09-19T17:25:05;17.00;99.90
11922;DHT22;6021;51.182;3.160;2023-09-19T17:27:35;17.10;99.90
11922;DHT22;6021;51.182;3.160;2023-09-19T17:30:10;17.00;99.90
11922;DHT22;6021;51.182;3.160;2023-09-19T17:32:36;17.00;99.90
11922;DHT22;6021;51.182;3.160;2023-09-19T17:35:04;17.10;99.90
11922;DHT22;6021;51.182;3.160;2023-09-19T17:37:36;17.20;99.90
11922;DHT22;6021;51.182;3.160;2023-09-19T17:40:07;17.20;99.90
11922;DHT22;6021;51.182;3.160;2023-09-19T17:42:38;17.20;99.90
11922;DHT22;6021;51.182;3.160;2023-09-19T17:45:10;17.20;99.90
11922;DHT22;6021;51.182;3.160;2023-09-19T17:47:45;17.20;99.90
11922;DHT22;6021;51.182;3.160;2023-09-19T17:50:13;17.30;99.90
11922;DHT22;6021;51.182;3.160;2023-09-19T17:52:42;17.30;99.90
11922;DHT22;6021;51.182;3.160;2023-09-19T17:55:14;17.30;99.90
11922;DHT22;6021;51.182;3.160;2023-09-19T17:57:44;17.30;99.90
11922;DHT22;6021;51.182;3.160;2023-09-19T18:00:14;17.20;99.90
11922;DHT22;6021;51.182;3.160;2023-09-19T18:02:43;17.20;99.90
11922;DHT22;6021;51.182;3.160;2023-09-19T18:05:12;17.30;99.90
11922;DHT22;6021;51.182;3.160;2023-09-19T18:07:45;17.30;99.90
11922;DHT22;6021;51.182;3.160;2023-09-19T18:10:15;17.30;99.90
11922;DHT22;6021;51.182;3.160;2023-09-19T18:12:44;17.30;99.90
11922;DHT22;6021;51.182;3.160;2023-09-19T18:15:12;17.30;99.90
11922;DHT22;6021;51.182;3.160;2023-09-19T18:17:41;17.40;99.90
11922;DHT22;6021;51.182;3.160;2023-09-19T18:20:10;17.30;99.90
11922;DHT22;6021;51.182;3.160;2023-09-19T18:22:38;17.40;99.90
11922;DHT22;6021;51.182;3.160;2023-09-19T18:25:07;17.30;99.90
11922;DHT22;6021;51.182;3.160;2023-09-19T18:27:35;17.30;99.90
11922;DHT22;6021;51.182;3.160;2023-09-19T18:30:05;17.40;99.90
11922;DHT22;6021;51.182;3.160;2023-09-19T18:32:34;17.40;99.90
11922;DHT22;6021;51.182;3.160;2023-09-19T18:35:05;17.50;99.90
11922;DHT22;6021;51.182;3.160;2023-09-19T18:37:34;17.50;99.90
11922;DHT22;6021;51.182;3.160;2023-09-19T18:40:03;17.50;99.90
11922;DHT22;6021;51.182;3.160;2023-09-19T18:42:31;17.50;99.90
11922;DHT22;6021;51.182;3.160;2023-09-19T18:44:59;17.50;99.90
11922;DHT22;6021;51.182;3.160;2023-09-19T18:47:28;17.60;99.90
11922;DHT22;6021;51.182;3.160;2023-09-19T18:49:56;17.60;99.90
11922;DHT22;6021;51.182;3.160;2023-09-19T18:52:25;17.60;99.90
11922;DHT22;6021;51.182;3.160;2023-09-19T18:54:54;17.50;99.90
11922;DHT22;6021;51.182;3.160;2023-09-19T18:57:22;17.50;99.90
11922;DHT22;6021;51.182;3.160;2023-09-19T18:59:51;17.60;99.90
11922;DHT22;6021;51.182;3.160;2023-09-19T19:02:20;17.60;99.90
11922;DHT22;6021;51.182;3.160;2023-09-19T19:04:50;17.60;99.90
11922;DHT22;6021;51.182;3.160;2023-09-19T19:07:18;17.60;99.90
11922;DHT22;6021;51.182;3.160;2023-09-19T19:09:48;17.60;99.90
11922;DHT22;6021;51.182;3.160;2023-09-19T19:12:19;17.60;99.90
11922;DHT22;6021;51.182;3.160;2023-09-19T19:14:47;17.60;99.90
11922;DHT22;6021;51.182;3.160;2023-09-19T19:17:15;17.60;99.90
11922;DHT22;6021;51.182;3.160;2023-09-19T19:19:44;17.60;99.90
11922;DHT22;6021;51.182;3.160;2023-09-19T19:22:12;17.60;99.90
11922;DHT22;6021;51.182;3.160;2023-09-19T19:24:40;17.60;99.90
11922;DHT22;6021;51.182;3.160;2023-09-19T19:27:09;17.60;99.90
11922;DHT22;6021;51.182;3.160;2023-09-19T19:29:38;17.60;99.90
11922;DHT22;6021;51.182;3.160;2023-09-19T19:32:07;17.70;99.90
11922;DHT22;6021;51.182;3.160;2023-09-19T19:34:37;17.70;99.90
11922;DHT22;6021;51.182;3.160;2023-09-19T19:37:07;17.60;99.90
11922;DHT22;6021;51.182;3.160;2023-09-19T19:39:38;17.60;99.90
11922;DHT22;6021;51.182;3.160;2023-09-19T19:42:08;17.60;99.90
11922;DHT22;6021;51.182;3.160;2023-09-19T19:44:36;17.70;99.90
11922;DHT22;6021;51.182;3.160;2023-09-19T19:47:04;17.70;99.90
11922;DHT22;6021;51.182;3.160;2023-09-19T19:49:33;17.80;99.90
11922;DHT22;6021;51.182;3.160;2023-09-19T19:52:01;17.80;99.90
11922;DHT22;6021;51.182;3.160;2023-09-19T19:54:30;17.80;99.90
11922;DHT22;6021;51.182;3.160;2023-09-19T19:56:59;17.70;99.90
11922;DHT22;6021;51.182;3.160;2023-09-19T19:59:27;17.70;99.90
11922;DHT22;6021;51.182;3.160;2023-09-19T20:01:56;17.70;99.90
11922;DHT22;6021;51.182;3.160;2023-09-19T20:04:24;17.70;99.90
11922;DHT22;6021;51.182;3.160;2023-09-19T20:06:54;17.80;99.90
11922;DHT22;6021;51.182;3.160;2023-09-19T20:09:23;17.70;99.90
11922;DHT22;6021;51.182;3.160;2023-09-19T20:11:51;17.70;99.90
11922;DHT22;6021;51.182;3.160;2023-09-19T20:14:19;17.70;99.90
11922;DHT22;6021;51.182;3.160;2023-09-19T20:16:48;17.80;99.90
11922;DHT22;6021;51.182;3.160;2023-09-19T20:19:18;17.80;99.90
11922;DHT22;6021;51.182;3.160;2023-09-19T20:21:47;17.80;99.90
11922;DHT22;6021;51.182;3.160;2023-09-19T20:24:16;17.80;99.90
11922;DHT22;6021;51.182;3.160;2023-09-19T20:26:46;17.70;99.90
11922;DHT22;6021;51.182;3.160;2023-09-19T20:29:15;17.70;99.90
11922;DHT22;6021;51.182;3.160;2023-09-19T20:31:43;17.80;99.90
11922;DHT22;6021;51.182;3.160;2023-09-19T20:34:12;17.80;99.90
11922;DHT22;6021;51.182;3.160;2023-09-19T20:36:41;17.90;99.90
11922;DHT22;6021;51.182;3.160;2023-09-19T20:39:09;17.90;98.00
11922;DHT22;6021;51.182;3.160;2023-09-19T20:41:37;17.90;99.30
11922;DHT22;6021;51.182;3.160;2023-09-19T20:44:06;18.00;98.30
11922;DHT22;6021;51.182;3.160;2023-09-19T20:46:36;17.90;92.50
11922;DHT22;6021;51.182;3.160;2023-09-19T20:49:04;17.90;93.30
11922;DHT22;6021;51.182;3.160;2023-09-19T20:51:32;17.90;95.40
11922;DHT22;6021;51.182;3.160;2023-09-19T20:54:22;17.90;90.00
11922;DHT22;6021;51.182;3.160;2023-09-19T20:56:50;17.90;90.40
11922;DHT22;6021;51.182;3.160;2023-09-19T20:59:20;17.90;86.90
11922;DHT22;6021;51.182;3.160;2023-09-19T21:01:48;17.90;85.50
11922;DHT22;6021;51.182;3.160;2023-09-19T21:04:18;18.00;80.60
11922;DHT22;6021;51.182;3.160;2023-09-19T21:06:46;18.00;70.80
11922;DHT22;6021;51.182;3.160;2023-09-19T21:09:16;18.00;77.20
11922;DHT22;6021;51.182;3.160;2023-09-19T21:12:04;18.00;67.20
11922;DHT22;6021;51.182;3.160;2023-09-19T21:14:33;18.00;70.30
11922;DHT22;6021;51.182;3.160;2023-09-19T21:17:01;17.90;68.50
11922;DHT22;6021;51.182;3.160;2023-09-19T21:19:30;17.90;71.30
11922;DHT22;6021;51.182;3.160;2023-09-19T21:21:59;18.00;67.50
11922;DHT22;6021;51.182;3.160;2023-09-19T21:24:28;18.10;66.80
11922;DHT22;6021;51.182;3.160;2023-09-19T21:26:59;18.10;56.20
11922;DHT22;6021;51.182;3.160;2023-09-19T21:29:31;18.10;53.70
11922;DHT22;6021;51.182;3.160;2023-09-19T21:32:00;18.00;52.10
11922;DHT22;6021;51.182;3.160;2023-09-19T21:34:29;18.10;52.00
11922;DHT22;6021;51.182;3.160;2023-09-19T21:36:58;18.00;51.40
11922;DHT22;6021;51.182;3.160;2023-09-19T21:39:26;18.00;56.70
11922;DHT22;6021;51.182;3.160;2023-09-19T21:41:54;18.10;60.70
11922;DHT22;6021;51.182;3.160;2023-09-19T21:44:22;18.20;43.90
11922;DHT22;6021;51.182;3.160;2023-09-19T21:46:51;18.20;33.00
11922;DHT22;6021;51.182;3.160;2023-09-19T21:49:21;18.10;39.60
11922;DHT22;6021;51.182;3.160;2023-09-19T21:51:49;18.20;52.90
11922;DHT22;6021;51.182;3.160;2023-09-19T21:54:18;18.10;41.60
11922;DHT22;6021;51.182;3.160;2023-09-19T21:56:46;18.10;44.30
11922;DHT22;6021;51.182;3.160;2023-09-19T21:59:15;18.10;51.00
11922;DHT22;6021;51.182;3.160;2023-09-19T22:01:44;18.20;62.80
11922;DHT22;6021;51.182;3.160;2023-09-19T22:04:12;18.20;66.50
11922;DHT22;6021;51.182;3.160;2023-09-19T22:06:40;18.20;84.40
11922;DHT22;6021;51.182;3.160;2023-09-19T22:09:09;18.20;75.30
11922;DHT22;6021;51.182;3.160;2023-09-19T22:11:37;18.20;98.90
11922;DHT22;6021;51.182;3.160;2023-09-19T22:14:07;18.20;92.90
11922;DHT22;6021;51.182;3.160;2023-09-19T22:16:35;18.10;98.40
11922;DHT22;6021;51.182;3.160;2023-09-19T22:19:05;18.20;99.90
11922;DHT22;6021;51.182;3.160;2023-09-19T22:21:35;18.10;99.90
11922;DHT22;6021;51.182;3.160;2023-09-19T22:24:05;18.20;99.90
11922;DHT22;6021;51.182;3.160;2023-09-19T22:26:35;18.20;99.90
11922;DHT22;6021;51.182;3.160;2023-09-19T22:29:05;18.20;99.90
11922;DHT22;6021;51.182;3.160;2023-09-19T22:31:34;18.20;99.90
11922;DHT22;6021;51.182;3.160;2023-09-19T22:34:10;18.10;99.90
11922;DHT22;6021;51.182;3.160;2023-09-19T22:36:39;18.20;96.10
11922;DHT22;6021;51.182;3.160;2023-09-19T22:39:09;18.10;98.20
11922;DHT22;6021;51.182;3.160;2023-09-19T22:41:42;18.20;86.60
11922;DHT22;6021;51.182;3.160;2023-09-19T22:44:12;18.20;92.80
11922;DHT22;6021;51.182;3.160;2023-09-19T22:46:41;18.20;77.10
11922;DHT22;6021;51.182;3.160;2023-09-19T22:49:10;18.10;85.40
11922;DHT22;6021;51.182;3.160;2023-09-19T22:51:40;18.20;82.90
11922;DHT22;6021;51.182;3.160;2023-09-19T22:54:09;18.20;79.60
11922;DHT22;6021;51.182;3.160;2023-09-19T22:56:39;18.20;73.40
11922;DHT22;6021;51.182;3.160;2023-09-19T22:59:08;18.10;65.00
11922;DHT22;6021;51.182;3.160;2023-09-19T23:01:38;18.10;66.70
11922;DHT22;6021;51.182;3.160;2023-09-19T23:04:11;18.10;55.00
11922;DHT22;6021;51.182;3.160;2023-09-19T23:06:41;18.20;52.70